createdAt,value
2022-09-10T00:01:26.980Z,11.74
2022-09-10T00:03:56.688Z,11.68
2022-09-10T00:06:27.863Z,11.71
2022-09-10T00:08:58.563Z,11.74
2022-09-10T00:11:32.812Z,11.80
2022-09-10T00:14:02.634Z,11.78
2022-09-10T00:16:32.305Z,11.76
2022-09-10T00:19:04.406Z,11.70
2022-09-10T00:21:35.778Z,11.70
2022-09-10T00:24:05.656Z,11.70
2022-09-10T00:26:38.354Z,11.71
2022-09-10T00:29:09.154Z,11.68
2022-09-10T00:31:37.845Z,11.70
2022-09-10T00:34:07.413Z,11.69
2022-09-10T00:36:39.879Z,11.71
2022-09-10T00:39:10.126Z,11.74
2022-09-10T00:41:40.562Z,11.68
2022-09-10T00:44:48.293Z,11.65
2022-09-10T00:47:19.088Z,11.62
2022-09-10T00:49:51.002Z,11.57
2022-09-10T00:52:21.276Z,11.54
2022-09-10T00:54:50.122Z,11.35
2022-09-10T00:57:22.018Z,11.40
2022-09-10T00:59:53.540Z,11.43
2022-09-10T01:02:22.848Z,11.46
2022-09-10T01:04:51.859Z,11.49
2022-09-10T01:07:24.223Z,11.52
2022-09-10T01:09:53.136Z,11.52
2022-09-10T01:12:36.095Z,11.46
2022-09-10T01:15:17.001Z,11.37
2022-09-10T01:17:58.430Z,11.42
2022-09-10T01:20:47.726Z,11.45
2022-09-10T01:23:45.369Z,11.52
2022-09-10T01:26:21.829Z,11.54
2022-09-10T01:28:56.537Z,11.56
2022-09-10T01:31:31.398Z,11.56
2022-09-10T01:34:04.538Z,11.57
2022-09-10T01:36:36.884Z,11.59
2022-09-10T01:39:05.869Z,11.57
2022-09-10T01:41:34.804Z,11.60
2022-09-10T01:44:11.083Z,11.64
2022-09-10T01:46:48.517Z,11.65
2022-09-10T01:49:26.372Z,11.67
2022-09-10T01:52:10.615Z,11.69
2022-09-10T01:54:48.394Z,11.70
2022-09-10T01:57:27.973Z,11.67
2022-09-10T02:00:07.324Z,11.71
2022-09-10T02:02:45.695Z,11.66
2022-09-10T02:05:21.141Z,11.66
2022-09-10T02:07:55.386Z,11.66
2022-09-10T02:10:24.197Z,11.68
2022-09-10T02:12:53.022Z,11.69
2022-09-10T02:15:39.291Z,11.70
2022-09-10T02:18:18.218Z,11.68
2022-09-10T02:20:47.529Z,11.62
2022-09-10T02:23:19.594Z,11.58
2022-09-10T02:25:49.264Z,11.59
2022-09-10T02:28:18.125Z,11.54
2022-09-10T02:30:48.887Z,11.55
2022-09-10T02:33:18.574Z,11.56
2022-09-10T02:35:47.964Z,11.56
2022-09-10T02:38:18.284Z,11.58
2022-09-10T02:40:49.210Z,11.57
2022-09-10T02:43:18.562Z,11.58
2022-09-10T02:45:48.900Z,11.56
2022-09-10T02:48:18.397Z,11.55
2022-09-10T02:50:47.372Z,11.53
2022-09-10T02:53:16.084Z,11.53
2022-09-10T02:55:46.284Z,11.45
2022-09-10T02:58:16.283Z,11.42
2022-09-10T03:00:48.950Z,11.38
2022-09-10T03:03:19.026Z,11.39
2022-09-10T03:05:48.044Z,11.40
2022-09-10T03:08:16.748Z,11.43
2022-09-10T03:10:46.987Z,11.45
2022-09-10T03:13:15.669Z,11.45
2022-09-10T03:15:45.783Z,11.41
2022-09-10T03:18:16.899Z,11.41
2022-09-10T03:20:46.592Z,11.38
2022-09-10T03:23:15.687Z,11.34
2022-09-10T03:25:47.911Z,11.28
2022-09-10T03:28:20.228Z,11.28
2022-09-10T03:30:49.528Z,11.25
2022-09-10T03:33:21.860Z,11.23
2022-09-10T03:35:52.435Z,11.15
2022-09-10T03:38:21.368Z,11.19
2022-09-10T03:40:49.777Z,11.19
2022-09-10T03:43:19.966Z,11.16
2022-09-10T03:45:49.375Z,11.07
2022-09-10T03:48:20.892Z,11.09
2022-09-10T03:50:51.017Z,11.08
2022-09-10T03:53:21.878Z,10.98
2022-09-10T03:55:54.019Z,10.99
2022-09-10T03:58:23.196Z,10.89
2022-09-10T04:00:53.228Z,10.80
2022-09-10T04:03:23.394Z,10.84
2022-09-10T04:05:53.657Z,10.88
2022-09-10T04:08:22.567Z,10.95
2022-09-10T04:10:52.220Z,11.02
2022-09-10T04:13:21.103Z,11.07
2022-09-10T04:15:50.015Z,11.02
2022-09-10T04:18:19.092Z,11.08
2022-09-10T04:20:49.999Z,11.10
2022-09-10T04:23:18.606Z,11.08
2022-09-10T04:25:47.665Z,11.10
2022-09-10T04:28:16.426Z,11.11
2022-09-10T04:30:48.191Z,11.09
2022-09-10T04:33:17.149Z,11.05
2022-09-10T04:35:46.168Z,11.06
2022-09-10T04:38:16.960Z,11.07
2022-09-10T04:40:47.716Z,11.04
2022-09-10T04:43:17.520Z,11.04
2022-09-10T04:45:46.439Z,11.03
2022-09-10T04:48:15.217Z,11.11
2022-09-10T04:51:05.348Z,11.03
2022-09-10T04:53:40.670Z,10.85
2022-09-10T04:56:09.751Z,10.89
2022-09-10T04:58:40.134Z,10.88
2022-09-10T05:01:09.593Z,10.90
2022-09-10T05:03:38.825Z,10.87
2022-09-10T05:06:08.921Z,11.02
2022-09-10T05:08:37.815Z,11.12
2022-09-10T05:11:08.407Z,11.18
2022-09-10T05:13:36.913Z,11.23
2022-09-10T05:16:07.866Z,11.17
2022-09-10T05:18:37.001Z,11.23
2022-09-10T05:21:06.792Z,11.25
2022-09-10T05:23:36.340Z,11.28
2022-09-10T05:26:04.979Z,11.30
2022-09-10T05:28:35.452Z,11.32
2022-09-10T05:31:09.788Z,11.37
2022-09-10T05:33:40.836Z,11.33
2022-09-10T05:36:12.289Z,11.35
2022-09-10T05:38:42.715Z,11.41
2022-09-10T05:41:12.099Z,11.34
2022-09-10T05:43:46.471Z,11.33
2022-09-10T05:46:15.422Z,11.44
2022-09-10T05:48:47.703Z,11.54
2022-09-10T05:51:17.424Z,11.58
2022-09-10T05:53:46.187Z,11.62
2022-09-10T05:56:17.420Z,11.62
2022-09-10T05:58:48.173Z,11.64
2022-09-10T06:01:16.703Z,11.69
2022-09-10T06:03:46.012Z,11.74
2022-09-10T06:06:15.470Z,11.73
2022-09-10T06:08:52.498Z,11.76
2022-09-10T06:11:29.021Z,11.81
2022-09-10T06:13:59.220Z,11.86
2022-09-10T06:16:28.626Z,11.93
2022-09-10T06:18:59.762Z,11.96
2022-09-10T06:21:29.521Z,11.97
2022-09-10T06:23:59.622Z,11.86
2022-09-10T06:26:32.243Z,11.88
2022-09-10T06:29:07.335Z,11.95
2022-09-10T06:31:36.309Z,12.02
2022-09-10T06:34:05.669Z,12.09
2022-09-10T06:36:35.282Z,12.16
2022-09-10T06:39:04.071Z,12.24
2022-09-10T06:41:45.820Z,12.32
2022-09-10T06:44:30.483Z,12.41
2022-09-10T06:47:50.858Z,12.44
2022-09-10T06:50:01.965Z,12.40
2022-09-10T06:52:33.784Z,12.47
2022-09-10T06:55:06.786Z,12.48
2022-09-10T06:57:40.717Z,12.51
2022-09-10T07:00:14.352Z,12.52
2022-09-10T07:02:45.994Z,12.45
2022-09-10T07:05:14.762Z,12.29
2022-09-10T07:07:44.178Z,12.29
2022-09-10T07:10:14.755Z,12.31
2022-09-10T07:12:44.850Z,12.18
2022-09-10T07:15:15.364Z,12.10
2022-09-10T07:17:44.082Z,12.17
2022-09-10T07:20:13.163Z,12.10
2022-09-10T07:22:49.399Z,12.09
2022-09-10T07:25:21.448Z,12.00
2022-09-10T07:27:55.643Z,12.09
2022-09-10T07:30:27.374Z,12.14
2022-09-10T07:32:57.144Z,12.19
2022-09-10T07:35:29.321Z,12.28
2022-09-10T07:37:58.174Z,12.32
2022-09-10T07:40:27.818Z,12.34
2022-09-10T07:42:56.949Z,12.39
2022-09-10T07:45:28.284Z,12.41
2022-09-10T07:47:57.102Z,11.95
2022-09-10T07:50:25.921Z,12.02
2022-09-10T07:52:55.631Z,11.73
2022-09-10T07:55:26.607Z,11.67
2022-09-10T07:57:59.559Z,11.78
2022-09-10T08:00:31.957Z,11.74
2022-09-10T08:03:06.975Z,11.84
2022-09-10T08:05:38.245Z,11.72
2022-09-10T08:08:07.738Z,11.53
2022-09-10T08:10:36.799Z,11.71
2022-09-10T08:13:05.546Z,11.95
2022-09-10T08:15:36.198Z,12.15
2022-09-10T08:18:05.734Z,12.28
2022-09-10T08:20:34.592Z,12.13
2022-09-10T08:23:03.499Z,12.38
2022-09-10T08:25:33.460Z,12.60
2022-09-10T08:28:02.924Z,12.55
2022-09-10T08:30:33.134Z,12.64
2022-09-10T08:33:03.615Z,12.49
2022-09-10T08:35:35.017Z,12.36
2022-09-10T08:38:03.955Z,12.29
2022-09-10T08:40:33.503Z,12.17
2022-09-10T08:43:02.654Z,12.34
2022-09-10T08:45:33.705Z,12.65
2022-09-10T08:48:09.410Z,12.85
2022-09-10T08:50:42.576Z,13.02
2022-09-10T08:53:26.011Z,12.93
2022-09-10T08:56:00.847Z,12.84
2022-09-10T08:58:33.995Z,13.04
2022-09-10T09:01:05.005Z,12.71
2022-09-10T09:03:38.681Z,12.98
2022-09-10T09:06:09.384Z,13.11
2022-09-10T09:08:48.588Z,13.23
2022-09-10T09:11:31.910Z,13.27
2022-09-10T09:14:17.003Z,13.03
2022-09-10T09:17:00.103Z,13.08
2022-09-10T09:19:34.116Z,13.12
2022-09-10T09:22:09.392Z,12.90
2022-09-10T09:24:46.375Z,12.93
2022-09-10T09:27:17.796Z,12.90
2022-09-10T09:29:51.445Z,12.97
2022-09-10T09:32:22.016Z,13.03
2022-09-10T09:34:55.882Z,13.17
2022-09-10T09:37:28.828Z,13.16
2022-09-10T09:40:07.226Z,13.22
2022-09-10T09:42:43.546Z,13.42
2022-09-10T09:45:23.517Z,13.54
2022-09-10T09:47:54.464Z,13.59
2022-09-10T09:50:24.762Z,13.79
2022-09-10T09:52:56.413Z,13.89
2022-09-10T09:55:31.186Z,14.07
2022-09-10T09:58:44.722Z,14.27
2022-09-10T10:01:15.990Z,14.32
2022-09-10T10:03:55.099Z,14.49
2022-09-10T10:06:26.856Z,14.65
2022-09-10T10:08:58.938Z,14.67
2022-09-10T10:11:55.593Z,14.79
2022-09-10T10:14:38.231Z,14.72
2022-09-10T10:17:39.995Z,15.08
2022-09-10T10:20:11.630Z,15.47
2022-09-10T10:22:42.459Z,15.45
2022-09-10T10:25:48.038Z,15.20
2022-09-10T10:28:21.501Z,15.06
2022-09-10T10:30:53.589Z,14.83
2022-09-10T10:33:29.510Z,14.83
2022-09-10T10:36:05.301Z,14.94
2022-09-10T10:38:38.029Z,14.85
2022-09-10T10:41:42.421Z,14.84
2022-09-10T10:44:29.696Z,14.73
2022-09-10T10:47:09.672Z,14.42
2022-09-10T10:49:50.220Z,14.46
2022-09-10T10:52:25.626Z,14.29
2022-09-10T10:55:06.266Z,14.34
2022-09-10T10:57:53.377Z,14.38
2022-09-10T11:00:22.285Z,14.20
2022-09-10T11:02:54.812Z,14.27
2022-09-10T11:05:31.205Z,14.33
2022-09-10T11:08:00.797Z,14.35
2022-09-10T11:10:35.329Z,14.25
2022-09-10T11:13:09.117Z,14.28
2022-09-10T11:20:29.978Z,14.40
2022-09-10T11:24:01.371Z,14.49
2022-09-10T11:30:36.753Z,14.25
2022-09-10T11:33:10.201Z,14.28
2022-09-10T11:35:41.397Z,14.24
2022-09-10T11:38:17.188Z,14.34
2022-09-10T11:40:48.341Z,14.29
2022-09-10T11:43:30.499Z,14.24
2022-09-10T11:46:03.180Z,14.26
2022-09-10T11:48:34.585Z,14.31
2022-09-10T11:51:06.754Z,14.42
2022-09-10T11:53:37.509Z,14.48
2022-09-10T11:56:31.860Z,14.64
2022-09-10T11:59:09.812Z,14.76
2022-09-10T12:01:52.985Z,14.88
2022-09-10T12:04:47.803Z,15.05
2022-09-10T12:07:26.983Z,14.85
2022-09-10T12:10:10.978Z,14.78
2022-09-10T12:12:44.107Z,14.79
2022-09-10T12:15:20.143Z,14.81
2022-09-10T12:17:53.638Z,14.79
2022-09-10T12:20:28.412Z,14.76
2022-09-10T12:22:57.307Z,14.57
2022-09-10T12:25:33.640Z,14.59
2022-09-10T12:28:08.059Z,14.58
2022-09-10T12:31:02.796Z,14.56
2022-09-10T12:34:12.449Z,14.54
2022-09-10T12:37:17.274Z,14.40
2022-09-10T12:39:46.042Z,14.33
2022-09-10T12:42:34.714Z,14.30
2022-09-10T12:45:03.365Z,14.29
2022-09-10T12:47:41.332Z,14.35
2022-09-10T12:50:23.716Z,14.38
2022-09-10T12:53:05.016Z,14.28
2022-09-10T12:55:42.105Z,14.31
2022-09-10T12:58:18.531Z,14.29
2022-09-10T13:00:59.533Z,14.21
2022-09-10T13:03:30.067Z,14.19
2022-09-10T13:06:01.823Z,14.10
2022-09-10T13:08:33.361Z,14.01
2022-09-10T13:11:16.450Z,14.06
2022-09-10T13:13:46.855Z,14.15
2022-09-10T13:16:18.391Z,14.22
2022-09-10T13:18:48.382Z,14.21
2022-09-10T13:21:55.702Z,14.33
2022-09-10T13:25:01.113Z,14.42
2022-09-10T13:27:43.033Z,14.43
2022-09-10T13:30:17.641Z,14.37
2022-09-10T13:32:50.143Z,14.42
2022-09-10T13:35:43.334Z,14.46
2022-09-10T13:38:28.081Z,14.38
2022-09-10T13:41:24.662Z,14.31
2022-09-10T13:44:17.013Z,14.21
2022-09-10T13:46:48.101Z,14.14
2022-09-10T13:49:20.903Z,14.20
2022-09-10T13:51:52.984Z,14.22
2022-09-10T13:54:31.250Z,14.18
2022-09-10T13:57:04.911Z,14.11
2022-09-10T13:59:34.994Z,14.11
2022-09-10T14:02:03.718Z,13.99
2022-09-10T14:04:35.715Z,13.90
2022-09-10T14:07:07.029Z,13.71
2022-09-10T14:09:37.799Z,13.74
2022-09-10T14:12:09.145Z,13.70
2022-09-10T14:14:40.305Z,13.61
2022-09-10T14:17:12.026Z,13.61
2022-09-10T14:19:44.639Z,13.64
2022-09-10T14:22:17.453Z,13.70
2022-09-10T14:24:51.531Z,13.69
2022-09-10T14:27:28.220Z,13.64
2022-09-10T14:29:58.335Z,13.64
2022-09-10T14:32:31.900Z,13.76
2022-09-10T14:35:03.599Z,13.61
2022-09-10T14:37:38.253Z,13.70
2022-09-10T14:40:18.539Z,13.83
2022-09-10T14:42:48.383Z,13.98
2022-09-10T14:45:39.540Z,13.98
2022-09-10T14:48:41.060Z,13.96
2022-09-10T14:51:18.065Z,13.99
2022-09-10T14:53:47.738Z,14.02
2022-09-10T14:56:24.170Z,14.04
2022-09-10T14:58:58.454Z,14.03
2022-09-10T15:01:27.341Z,13.97
2022-09-10T15:03:56.120Z,13.89
2022-09-10T15:06:26.771Z,13.84
2022-09-10T15:08:57.310Z,13.86
2022-09-10T15:11:27.671Z,13.89
2022-09-10T15:13:58.892Z,13.76
2022-09-10T15:16:27.760Z,13.71
2022-09-10T15:18:57.852Z,13.65
2022-09-10T15:21:26.711Z,13.58
2022-09-10T15:23:55.326Z,13.53
2022-09-10T15:26:23.920Z,13.53
2022-09-10T15:28:53.893Z,13.51
2022-09-10T15:31:23.403Z,13.48
2022-09-10T15:33:52.680Z,13.48
2022-09-10T15:36:22.510Z,13.40
2022-09-10T15:38:54.306Z,13.41
2022-09-10T15:41:23.155Z,13.42
2022-09-10T15:43:51.440Z,13.41
2022-09-10T15:46:24.453Z,13.34
2022-09-10T15:48:53.317Z,13.31
2022-09-10T15:51:24.191Z,13.22
2022-09-10T15:53:54.420Z,13.13
2022-09-10T15:56:24.957Z,13.11
2022-09-10T15:58:55.186Z,13.08
2022-09-10T16:01:26.356Z,13.05
2022-09-10T16:03:56.473Z,12.98
2022-09-10T16:06:27.446Z,12.95
2022-09-10T16:08:57.863Z,12.99
2022-09-10T16:11:26.354Z,13.01
2022-09-10T16:13:55.133Z,13.02
2022-09-10T16:16:27.304Z,13.05
2022-09-10T16:18:56.281Z,13.06
2022-09-10T16:21:26.262Z,13.05
2022-09-10T16:23:56.887Z,13.04
2022-09-10T16:26:27.963Z,13.01
2022-09-10T16:28:57.928Z,13.01
2022-09-10T16:31:29.098Z,13.00
2022-09-10T16:33:59.821Z,12.97
2022-09-10T16:36:28.564Z,12.97
2022-09-10T16:38:58.472Z,12.96
2022-09-10T16:41:27.388Z,12.90
2022-09-10T16:43:58.374Z,12.86
2022-09-10T16:46:29.070Z,12.85
2022-09-10T16:48:58.641Z,12.81
2022-09-10T16:51:28.849Z,12.77
2022-09-10T16:54:01.814Z,12.74
2022-09-10T16:56:31.565Z,12.72
2022-09-10T16:59:00.228Z,12.64
2022-09-10T17:01:31.179Z,12.60
2022-09-10T17:04:00.325Z,12.61
2022-09-10T17:06:29.994Z,12.60
2022-09-10T17:09:00.163Z,12.57
2022-09-10T17:11:31.575Z,12.56
2022-09-10T17:14:02.500Z,12.55
2022-09-10T17:16:33.891Z,12.56
2022-09-10T17:19:04.024Z,12.53
2022-09-10T17:21:34.651Z,12.55
2022-09-10T17:24:05.019Z,12.49
2022-09-10T17:26:34.323Z,12.53
2022-09-10T17:29:04.828Z,12.49
2022-09-10T17:31:34.974Z,12.47
2022-09-10T17:34:03.914Z,12.45
2022-09-10T17:36:33.669Z,12.45
2022-09-10T17:39:02.435Z,12.45
2022-09-10T17:41:31.736Z,12.47
2022-09-10T17:44:00.828Z,12.47
2022-09-10T17:46:31.291Z,12.41
2022-09-10T17:49:02.093Z,12.36
2022-09-10T17:51:32.004Z,12.32
2022-09-10T17:54:02.618Z,12.31
2022-09-10T17:56:31.685Z,12.28
2022-09-10T17:59:02.524Z,12.26
2022-09-10T18:01:32.814Z,12.27
2022-09-10T18:04:04.231Z,12.25
2022-09-10T18:06:36.294Z,12.24
2022-09-10T18:09:05.901Z,12.25
2022-09-10T18:11:37.122Z,12.25
2022-09-10T18:14:06.033Z,12.25
2022-09-10T18:16:36.431Z,12.25
2022-09-10T18:19:13.931Z,12.27
2022-09-10T18:21:44.490Z,12.27
2022-09-10T18:24:18.272Z,12.24
2022-09-10T18:26:48.599Z,12.23
2022-09-10T18:29:17.778Z,12.22
2022-09-10T18:31:48.310Z,12.24
2022-09-10T18:34:23.216Z,12.26
2022-09-10T18:36:54.940Z,12.23
2022-09-10T18:39:23.926Z,12.20
2022-09-10T18:41:53.019Z,12.21
2022-09-10T18:44:23.021Z,12.20
2022-09-10T18:46:53.116Z,12.20
2022-09-10T18:49:23.497Z,12.21
2022-09-10T18:51:52.484Z,12.17
2022-09-10T18:54:22.519Z,12.09
2022-09-10T18:56:53.409Z,12.13
2022-09-10T18:59:23.643Z,12.18
2022-09-10T19:01:53.891Z,12.21
2022-09-10T19:04:26.022Z,12.23
2022-09-10T19:06:54.930Z,12.23
2022-09-10T19:09:24.882Z,12.25
2022-09-10T19:11:54.915Z,12.22
2022-09-10T19:14:26.277Z,12.18
2022-09-10T19:16:56.447Z,12.18
2022-09-10T19:19:28.679Z,12.17
2022-09-10T19:21:59.547Z,12.20
2022-09-10T19:24:50.947Z,12.22
2022-09-10T19:27:18.234Z,12.20
2022-09-10T19:29:47.400Z,12.22
2022-09-10T19:32:17.227Z,12.25
2022-09-10T19:34:47.046Z,12.25
2022-09-10T19:37:15.776Z,12.26
2022-09-10T19:39:44.602Z,12.24
2022-09-10T19:42:13.713Z,12.25
2022-09-10T19:44:42.362Z,12.23
2022-09-10T19:47:10.923Z,12.27
2022-09-10T19:49:39.240Z,12.22
2022-09-10T19:52:11.171Z,12.24
2022-09-10T19:54:39.937Z,12.26
2022-09-10T19:57:08.573Z,12.25
2022-09-10T19:59:37.162Z,12.23
2022-09-10T20:02:05.870Z,12.18
2022-09-10T20:04:34.247Z,12.20
2022-09-10T20:07:05.518Z,12.20
2022-09-10T20:09:39.708Z,12.20
2022-09-10T20:12:09.381Z,12.22
2022-09-10T20:14:38.232Z,12.23
2022-09-10T20:17:06.926Z,12.23
2022-09-10T20:19:35.265Z,12.24
2022-09-10T20:22:03.823Z,12.23
2022-09-10T20:24:32.517Z,12.18
2022-09-10T20:27:02.437Z,12.15
2022-09-10T20:29:33.004Z,12.14
2022-09-10T20:32:01.272Z,12.15
2022-09-10T20:34:29.593Z,12.15
2022-09-10T20:36:58.195Z,12.17
2022-09-10T20:39:27.063Z,12.14
2022-09-10T20:41:55.625Z,12.10
2022-09-10T20:44:26.238Z,12.09
2022-09-10T20:46:54.457Z,12.08
2022-09-10T20:49:23.069Z,12.04
2022-09-10T20:51:52.548Z,12.02
2022-09-10T20:54:21.124Z,11.95
2022-09-10T20:56:49.855Z,11.95
2022-09-10T20:59:19.342Z,11.96
2022-09-10T21:01:50.960Z,11.94
2022-09-10T21:04:19.985Z,11.91
2022-09-10T21:06:48.570Z,11.90
2022-09-10T21:09:17.571Z,11.89
2022-09-10T21:11:46.463Z,11.85
2022-09-10T21:14:15.434Z,11.83
2022-09-10T21:16:43.712Z,11.81
2022-09-10T21:19:15.203Z,11.77
2022-09-10T21:21:45.183Z,11.74
2022-09-10T21:24:14.701Z,11.70
2022-09-10T21:26:44.276Z,11.70
2022-09-10T21:29:14.480Z,11.68
2022-09-10T21:31:43.549Z,11.64
2022-09-10T21:34:14.027Z,11.66
2022-09-10T21:36:43.870Z,11.67
2022-09-10T21:39:15.184Z,11.66
2022-09-10T21:41:45.219Z,11.66
2022-09-10T21:44:15.269Z,11.68
2022-09-10T21:46:43.887Z,11.68
2022-09-10T21:49:14.300Z,11.64
2022-09-10T21:51:42.828Z,11.61
2022-09-10T21:54:15.486Z,11.59
2022-09-10T21:56:44.105Z,11.54
2022-09-10T21:59:14.780Z,11.54
2022-09-10T22:01:43.864Z,11.49
2022-09-10T22:04:17.855Z,11.49
2022-09-10T22:06:51.812Z,11.49
2022-09-10T22:09:21.406Z,11.42
2022-09-10T22:11:52.058Z,11.40
2022-09-10T22:14:22.108Z,11.37
2022-09-10T22:16:50.475Z,11.36
2022-09-10T22:19:21.789Z,11.33
2022-09-10T22:21:51.039Z,11.31
2022-09-10T22:24:19.616Z,11.32
2022-09-10T22:26:48.438Z,11.31
2022-09-10T22:29:18.286Z,11.26
2022-09-10T22:31:47.314Z,11.27
2022-09-10T22:34:16.945Z,11.25
2022-09-10T22:36:48.533Z,11.24
2022-09-10T22:39:18.770Z,11.27
2022-09-10T22:41:47.752Z,11.25
2022-09-10T22:44:17.808Z,11.26
2022-09-10T22:46:46.185Z,11.20
2022-09-10T22:49:16.164Z,11.16
2022-09-10T22:51:46.347Z,11.19
2022-09-10T22:54:15.308Z,11.22
2022-09-10T22:56:44.634Z,11.20
2022-09-10T22:59:14.766Z,11.18
2022-09-10T23:01:47.436Z,11.13
2022-09-10T23:04:16.458Z,11.14
2022-09-10T23:06:46.461Z,11.11
2022-09-10T23:09:17.462Z,11.13
2022-09-10T23:11:46.175Z,11.15
2022-09-10T23:14:17.814Z,11.16
2022-09-10T23:16:48.300Z,11.20
2022-09-10T23:19:18.881Z,11.22
2022-09-10T23:21:51.206Z,11.21
2022-09-10T23:24:22.008Z,11.13
2022-09-10T23:26:50.831Z,11.13
2022-09-10T23:29:21.604Z,11.14
2022-09-10T23:31:52.963Z,11.11
2022-09-10T23:34:22.234Z,11.03
2022-09-10T23:36:53.187Z,10.97
2022-09-10T23:39:22.811Z,10.97
2022-09-10T23:41:52.467Z,11.00
2022-09-10T23:44:21.186Z,11.04
2022-09-10T23:46:50.000Z,11.01
2022-09-10T23:49:18.642Z,10.98
2022-09-10T23:51:47.205Z,10.96
2022-09-10T23:54:17.330Z,10.94
2022-09-10T23:56:45.947Z,10.94
2022-09-10T23:59:15.364Z,10.94
